sensor_id;sensor_type;location;lat;lon;timestamp;temperature;humidity
31799;DHT22;18374;51.136;3.502;2023-02-04T00:01:46;10.00;99.90
31799;DHT22;18374;51.136;3.502;2023-02-04T00:04:14;10.00;99.90
31799;DHT22;18374;51.136;3.502;2023-02-04T00:06:43;9.90;99.90
31799;DHT22;18374;51.136;3.502;2023-02-04T00:09:14;10.00;99.90
31799;DHT22;18374;51.136;3.502;2023-02-04T00:11:45;9.90;99.90
31799;DHT22;18374;51.136;3.502;2023-02-04T00:14:13;9.90;99.90
31799;DHT22;18374;51.136;3.502;2023-02-04T00:16:45;9.90;99.90
31799;DHT22;18374;51.136;3.502;2023-02-04T00:19:26;9.90;99.90
31799;DHT22;18374;51.136;3.502;2023-02-04T00:21:54;9.90;99.90
31799;DHT22;18374;51.136;3.502;2023-02-04T00:24:22;9.90;99.90
31799;DHT22;18374;51.136;3.502;2023-02-04T00:26:50;9.90;99.90
31799;DHT22;18374;51.136;3.502;2023-02-04T00:29:20;9.90;99.90
31799;DHT22;18374;51.136;3.502;2023-02-04T00:31:54;9.80;99.90
31799;DHT22;18374;51.136;3.502;2023-02-04T00:34:24;9.80;99.90
31799;DHT22;18374;51.136;3.502;2023-02-04T00:36:58;9.70;99.90
31799;DHT22;18374;51.136;3.502;2023-02-04T00:39:28;9.70;99.90
31799;DHT22;18374;51.136;3.502;2023-02-04T00:41:56;9.60;99.90
31799;DHT22;18374;51.136;3.502;2023-02-04T00:44:25;9.60;99.90
31799;DHT22;18374;51.136;3.502;2023-02-04T00:46:53;9.50;99.90
31799;DHT22;18374;51.136;3.502;2023-02-04T00:49:23;9.50;99.90
31799;DHT22;18374;51.136;3.502;2023-02-04T00:52:01;9.40;99.90
31799;DHT22;18374;51.136;3.502;2023-02-04T00:54:29;9.40;99.90
31799;DHT22;18374;51.136;3.502;2023-02-04T00:57:05;9.30;99.90
31799;DHT22;18374;51.136;3.502;2023-02-04T00:59:35;9.30;99.90
31799;DHT22;18374;51.136;3.502;2023-02-04T01:02:05;9.30;99.90
31799;DHT22;18374;51.136;3.502;2023-02-04T01:04:36;9.20;99.90
31799;DHT22;18374;51.136;3.502;2023-02-04T01:07:09;9.20;99.90
31799;DHT22;18374;51.136;3.502;2023-02-04T01:09:42;9.20;99.90
31799;DHT22;18374;51.136;3.502;2023-02-04T01:12:10;9.20;99.90
31799;DHT22;18374;51.136;3.502;2023-02-04T01:14:45;9.20;99.90
31799;DHT22;18374;51.136;3.502;2023-02-04T01:17:15;9.10;99.90
31799;DHT22;18374;51.136;3.502;2023-02-04T01:19:46;9.10;99.90
31799;DHT22;18374;51.136;3.502;2023-02-04T01:22:16;9.10;99.90
31799;DHT22;18374;51.136;3.502;2023-02-04T01:24:47;9.10;99.90
31799;DHT22;18374;51.136;3.502;2023-02-04T01:27:37;9.10;99.90
31799;DHT22;18374;51.136;3.502;2023-02-04T01:30:09;9.10;99.90
31799;DHT22;18374;51.136;3.502;2023-02-04T01:32:37;9.10;99.90
31799;DHT22;18374;51.136;3.502;2023-02-04T01:35:08;9.10;99.90
31799;DHT22;18374;51.136;3.502;2023-02-04T01:37:40;9.10;99.90
31799;DHT22;18374;51.136;3.502;2023-02-04T01:40:26;9.10;99.90
31799;DHT22;18374;51.136;3.502;2023-02-04T01:42:54;9.10;99.90
31799;DHT22;18374;51.136;3.502;2023-02-04T01:45:27;9.10;99.90
31799;DHT22;18374;51.136;3.502;2023-02-04T01:48:01;9.10;99.90
31799;DHT22;18374;51.136;3.502;2023-02-04T01:50:39;9.10;99.90
31799;DHT22;18374;51.136;3.502;2023-02-04T01:53:12;9.10;99.90
31799;DHT22;18374;51.136;3.502;2023-02-04T01:55:40;9.00;99.90
31799;DHT22;18374;51.136;3.502;2023-02-04T01:58:09;9.00;99.90
31799;DHT22;18374;51.136;3.502;2023-02-04T02:00:39;9.00;99.90
31799;DHT22;18374;51.136;3.502;2023-02-04T02:03:10;9.00;99.90
31799;DHT22;18374;51.136;3.502;2023-02-04T02:05:47;9.00;99.90
31799;DHT22;18374;51.136;3.502;2023-02-04T02:08:22;9.00;99.90
31799;DHT22;18374;51.136;3.502;2023-02-04T02:10:51;9.00;99.90
31799;DHT22;18374;51.136;3.502;2023-02-04T02:13:19;9.00;99.90
31799;DHT22;18374;51.136;3.502;2023-02-04T02:15:51;9.00;99.90
31799;DHT22;18374;51.136;3.502;2023-02-04T02:18:19;9.00;99.90
31799;DHT22;18374;51.136;3.502;2023-02-04T02:20:50;9.00;99.90
31799;DHT22;18374;51.136;3.502;2023-02-04T02:23:26;9.00;99.90
31799;DHT22;18374;51.136;3.502;2023-02-04T02:26:17;9.00;99.90
31799;DHT22;18374;51.136;3.502;2023-02-04T02:28:49;9.00;99.90
31799;DHT22;18374;51.136;3.502;2023-02-04T02:31:27;9.00;99.90
31799;DHT22;18374;51.136;3.502;2023-02-04T02:34:03;9.00;99.90
31799;DHT22;18374;51.136;3.502;2023-02-04T02:36:31;9.00;99.90
31799;DHT22;18374;51.136;3.502;2023-02-04T02:39:00;8.90;99.90
31799;DHT22;18374;51.136;3.502;2023-02-04T02:41:37;8.90;99.90
31799;DHT22;18374;51.136;3.502;2023-02-04T02:44:07;9.00;99.90
31799;DHT22;18374;51.136;3.502;2023-02-04T02:46:39;9.00;99.90
31799;DHT22;18374;51.136;3.502;2023-02-04T02:49:15;9.00;99.90
31799;DHT22;18374;51.136;3.502;2023-02-04T02:51:47;8.90;99.90
31799;DHT22;18374;51.136;3.502;2023-02-04T02:54:28;8.90;99.90
31799;DHT22;18374;51.136;3.502;2023-02-04T02:57:19;8.90;99.90
31799;DHT22;18374;51.136;3.502;2023-02-04T02:59:50;8.90;99.90
31799;DHT22;18374;51.136;3.502;2023-02-04T03:02:23;8.90;99.90
31799;DHT22;18374;51.136;3.502;2023-02-04T03:04:55;8.90;99.90
31799;DHT22;18374;51.136;3.502;2023-02-04T03:07:33;8.90;99.90
31799;DHT22;18374;51.136;3.502;2023-02-04T03:10:06;8.90;99.90
31799;DHT22;18374;51.136;3.502;2023-02-04T03:12:37;9.00;99.90
31799;DHT22;18374;51.136;3.502;2023-02-04T03:15:08;8.90;99.90
31799;DHT22;18374;51.136;3.502;2023-02-04T03:17:38;9.00;99.90
31799;DHT22;18374;51.136;3.502;2023-02-04T03:20:12;8.90;99.90
31799;DHT22;18374;51.136;3.502;2023-02-04T03:22:46;8.90;99.90
31799;DHT22;18374;51.136;3.502;2023-02-04T03:25:20;8.80;99.90
31799;DHT22;18374;51.136;3.502;2023-02-04T03:27:52;8.80;99.90
31799;DHT22;18374;51.136;3.502;2023-02-04T03:30:26;8.80;99.90
31799;DHT22;18374;51.136;3.502;2023-02-04T03:32:58;8.80;99.90
31799;DHT22;18374;51.136;3.502;2023-02-04T03:35:35;8.80;99.90
31799;DHT22;18374;51.136;3.502;2023-02-04T03:38:09;8.80;99.90
31799;DHT22;18374;51.136;3.502;2023-02-04T03:40:42;8.80;99.90
31799;DHT22;18374;51.136;3.502;2023-02-04T03:43:10;8.80;99.90
31799;DHT22;18374;51.136;3.502;2023-02-04T03:45:45;8.80;99.90
31799;DHT22;18374;51.136;3.502;2023-02-04T03:48:13;8.70;99.90
31799;DHT22;18374;51.136;3.502;2023-02-04T03:50:47;8.70;99.90
31799;DHT22;18374;51.136;3.502;2023-02-04T03:53:21;8.70;99.90
31799;DHT22;18374;51.136;3.502;2023-02-04T03:55:57;8.70;99.90
31799;DHT22;18374;51.136;3.502;2023-02-04T03:58:29;8.70;99.90
31799;DHT22;18374;51.136;3.502;2023-02-04T04:01:00;8.70;99.90
31799;DHT22;18374;51.136;3.502;2023-02-04T04:03:41;8.70;99.90
31799;DHT22;18374;51.136;3.502;2023-02-04T04:06:11;8.70;99.90
31799;DHT22;18374;51.136;3.502;2023-02-04T04:08:39;8.70;99.90
31799;DHT22;18374;51.136;3.502;2023-02-04T04:11:07;8.70;99.90
31799;DHT22;18374;51.136;3.502;2023-02-04T04:13:42;8.70;99.90
31799;DHT22;18374;51.136;3.502;2023-02-04T04:16:12;8.70;99.90
31799;DHT22;18374;51.136;3.502;2023-02-04T04:18:55;8.70;99.90
31799;DHT22;18374;51.136;3.502;2023-02-04T04:21:45;8.70;99.90
31799;DHT22;18374;51.136;3.502;2023-02-04T04:24:35;8.60;99.90
31799;DHT22;18374;51.136;3.502;2023-02-04T04:27:07;8.70;99.90
31799;DHT22;18374;51.136;3.502;2023-02-04T04:29:35;8.70;99.90
31799;DHT22;18374;51.136;3.502;2023-02-04T04:32:05;8.70;99.90
31799;DHT22;18374;51.136;3.502;2023-02-04T04:34:36;8.70;99.90
31799;DHT22;18374;51.136;3.502;2023-02-04T04:37:10;8.70;99.90
31799;DHT22;18374;51.136;3.502;2023-02-04T04:39:48;8.70;99.90
31799;DHT22;18374;51.136;3.502;2023-02-04T04:42:19;8.70;99.90
31799;DHT22;18374;51.136;3.502;2023-02-04T04:44:51;8.70;99.90
31799;DHT22;18374;51.136;3.502;2023-02-04T04:47:24;8.70;99.90
31799;DHT22;18374;51.136;3.502;2023-02-04T04:49:54;8.70;99.90
31799;DHT22;18374;51.136;3.502;2023-02-04T04:52:23;8.70;99.90
31799;DHT22;18374;51.136;3.502;2023-02-04T04:54:58;8.70;99.90
31799;DHT22;18374;51.136;3.502;2023-02-04T04:57:30;8.70;99.90
31799;DHT22;18374;51.136;3.502;2023-02-04T05:00:06;8.60;99.90
31799;DHT22;18374;51.136;3.502;2023-02-04T05:02:40;8.60;99.90
31799;DHT22;18374;51.136;3.502;2023-02-04T05:05:09;8.60;99.90
31799;DHT22;18374;51.136;3.502;2023-02-04T05:07:42;8.60;99.90
31799;DHT22;18374;51.136;3.502;2023-02-04T05:10:11;8.60;99.90
31799;DHT22;18374;51.136;3.502;2023-02-04T05:12:42;8.60;99.90
31799;DHT22;18374;51.136;3.502;2023-02-04T05:15:12;8.60;99.90
31799;DHT22;18374;51.136;3.502;2023-02-04T05:17:44;8.60;99.90
31799;DHT22;18374;51.136;3.502;2023-02-04T05:20:13;8.60;99.90
31799;DHT22;18374;51.136;3.502;2023-02-04T05:22:45;8.60;99.90
31799;DHT22;18374;51.136;3.502;2023-02-04T05:25:16;8.60;99.90
31799;DHT22;18374;51.136;3.502;2023-02-04T05:27:44;8.60;99.90
31799;DHT22;18374;51.136;3.502;2023-02-04T05:30:15;8.60;99.90
31799;DHT22;18374;51.136;3.502;2023-02-04T05:32:45;8.60;99.90
31799;DHT22;18374;51.136;3.502;2023-02-04T05:35:16;8.60;99.90
31799;DHT22;18374;51.136;3.502;2023-02-04T05:37:44;8.60;99.90
31799;DHT22;18374;51.136;3.502;2023-02-04T05:40:15;8.50;99.90
31799;DHT22;18374;51.136;3.502;2023-02-04T05:42:42;8.50;99.90
31799;DHT22;18374;51.136;3.502;2023-02-04T05:45:15;8.50;99.90
31799;DHT22;18374;51.136;3.502;2023-02-04T05:47:43;8.50;99.90
31799;DHT22;18374;51.136;3.502;2023-02-04T05:50:11;8.50;99.90
31799;DHT22;18374;51.136;3.502;2023-02-04T05:52:39;8.50;99.90
31799;DHT22;18374;51.136;3.502;2023-02-04T05:55:09;8.50;99.90
31799;DHT22;18374;51.136;3.502;2023-02-04T05:57:38;8.50;99.90
31799;DHT22;18374;51.136;3.502;2023-02-04T06:00:06;8.50;99.90
31799;DHT22;18374;51.136;3.502;2023-02-04T06:02:40;8.50;99.90
31799;DHT22;18374;51.136;3.502;2023-02-04T06:05:08;8.40;99.90
31799;DHT22;18374;51.136;3.502;2023-02-04T06:07:36;8.40;99.90
31799;DHT22;18374;51.136;3.502;2023-02-04T06:10:04;8.40;99.90
31799;DHT22;18374;51.136;3.502;2023-02-04T06:12:32;8.50;99.90
31799;DHT22;18374;51.136;3.502;2023-02-04T06:15:00;8.40;99.90
31799;DHT22;18374;51.136;3.502;2023-02-04T06:17:28;8.40;99.90
31799;DHT22;18374;51.136;3.502;2023-02-04T06:19:55;8.30;99.90
31799;DHT22;18374;51.136;3.502;2023-02-04T06:22:23;8.30;99.90
31799;DHT22;18374;51.136;3.502;2023-02-04T06:24:52;8.30;99.90
31799;DHT22;18374;51.136;3.502;2023-02-04T06:27:20;8.30;99.90
31799;DHT22;18374;51.136;3.502;2023-02-04T06:29:53;8.30;99.90
31799;DHT22;18374;51.136;3.502;2023-02-04T06:32:21;8.30;99.90
31799;DHT22;18374;51.136;3.502;2023-02-04T06:34:49;8.20;99.90
31799;DHT22;18374;51.136;3.502;2023-02-04T06:37:17;8.20;99.90
31799;DHT22;18374;51.136;3.502;2023-02-04T06:39:44;8.20;99.90
31799;DHT22;18374;51.136;3.502;2023-02-04T06:42:12;8.20;99.90
31799;DHT22;18374;51.136;3.502;2023-02-04T06:44:40;8.20;99.90
31799;DHT22;18374;51.136;3.502;2023-02-04T06:47:08;8.20;99.90
31799;DHT22;18374;51.136;3.502;2023-02-04T06:49:35;8.20;99.90
31799;DHT22;18374;51.136;3.502;2023-02-04T06:52:03;8.20;99.90
31799;DHT22;18374;51.136;3.502;2023-02-04T06:54:32;8.20;99.90
31799;DHT22;18374;51.136;3.502;2023-02-04T06:57:00;8.20;99.90
31799;DHT22;18374;51.136;3.502;2023-02-04T06:59:37;8.20;99.90
31799;DHT22;18374;51.136;3.502;2023-02-04T07:02:07;8.20;99.90
31799;DHT22;18374;51.136;3.502;2023-02-04T07:04:34;8.10;99.90
31799;DHT22;18374;51.136;3.502;2023-02-04T07:07:02;8.10;99.90
31799;DHT22;18374;51.136;3.502;2023-02-04T07:09:30;8.10;99.90
31799;DHT22;18374;51.136;3.502;2023-02-04T07:11:58;8.10;99.90
31799;DHT22;18374;51.136;3.502;2023-02-04T07:14:25;8.10;99.90
31799;DHT22;18374;51.136;3.502;2023-02-04T07:16:53;8.10;99.90
31799;DHT22;18374;51.136;3.502;2023-02-04T07:19:21;8.10;99.90
31799;DHT22;18374;51.136;3.502;2023-02-04T07:21:48;8.10;99.90
31799;DHT22;18374;51.136;3.502;2023-02-04T07:24:20;8.10;99.90
31799;DHT22;18374;51.136;3.502;2023-02-04T07:26:48;8.10;99.90
31799;DHT22;18374;51.136;3.502;2023-02-04T07:29:16;8.10;99.90
31799;DHT22;18374;51.136;3.502;2023-02-04T07:31:52;8.20;99.90
31799;DHT22;18374;51.136;3.502;2023-02-04T07:34:20;8.20;99.90
31799;DHT22;18374;51.136;3.502;2023-02-04T07:36:48;8.20;99.90
31799;DHT22;18374;51.136;3.502;2023-02-04T07:39:16;8.20;99.90
31799;DHT22;18374;51.136;3.502;2023-02-04T07:41:44;8.20;99.90
31799;DHT22;18374;51.136;3.502;2023-02-04T07:44:13;8.20;99.90
31799;DHT22;18374;51.136;3.502;2023-02-04T07:46:41;8.20;99.90
31799;DHT22;18374;51.136;3.502;2023-02-04T07:49:09;8.20;99.90
31799;DHT22;18374;51.136;3.502;2023-02-04T07:51:37;8.10;99.90
31799;DHT22;18374;51.136;3.502;2023-02-04T07:54:04;8.10;99.90
31799;DHT22;18374;51.136;3.502;2023-02-04T07:56:32;8.00;99.90
31799;DHT22;18374;51.136;3.502;2023-02-04T07:59:00;8.00;99.90
31799;DHT22;18374;51.136;3.502;2023-02-04T08:01:28;7.90;99.90
31799;DHT22;18374;51.136;3.502;2023-02-04T08:03:55;7.80;99.90
31799;DHT22;18374;51.136;3.502;2023-02-04T08:06:23;7.70;99.90
31799;DHT22;18374;51.136;3.502;2023-02-04T08:08:51;7.80;99.90
31799;DHT22;18374;51.136;3.502;2023-02-04T08:11:18;7.80;99.90
31799;DHT22;18374;51.136;3.502;2023-02-04T08:13:46;7.90;99.90
31799;DHT22;18374;51.136;3.502;2023-02-04T08:16:14;7.80;99.90
31799;DHT22;18374;51.136;3.502;2023-02-04T08:18:42;7.80;99.90
31799;DHT22;18374;51.136;3.502;2023-02-04T08:21:09;7.80;99.90
31799;DHT22;18374;51.136;3.502;2023-02-04T08:23:37;7.80;99.90
31799;DHT22;18374;51.136;3.502;2023-02-04T08:26:09;7.70;99.90
31799;DHT22;18374;51.136;3.502;2023-02-04T08:28:38;7.70;99.90
31799;DHT22;18374;51.136;3.502;2023-02-04T08:31:06;7.70;99.90
31799;DHT22;18374;51.136;3.502;2023-02-04T08:33:38;7.70;99.90
31799;DHT22;18374;51.136;3.502;2023-02-04T08:36:06;7.60;99.90
31799;DHT22;18374;51.136;3.502;2023-02-04T08:38:34;7.60;99.90
31799;DHT22;18374;51.136;3.502;2023-02-04T08:41:02;7.60;99.90
31799;DHT22;18374;51.136;3.502;2023-02-04T08:43:30;7.60;99.90
31799;DHT22;18374;51.136;3.502;2023-02-04T08:45:58;7.70;99.90
31799;DHT22;18374;51.136;3.502;2023-02-04T08:48:26;7.80;99.90
31799;DHT22;18374;51.136;3.502;2023-02-04T08:50:54;7.80;99.90
31799;DHT22;18374;51.136;3.502;2023-02-04T08:53:24;7.90;99.90
31799;DHT22;18374;51.136;3.502;2023-02-04T08:55:51;7.90;99.90
31799;DHT22;18374;51.136;3.502;2023-02-04T08:58:19;8.00;99.90
31799;DHT22;18374;51.136;3.502;2023-02-04T09:00:47;8.00;99.90
31799;DHT22;18374;51.136;3.502;2023-02-04T09:03:15;8.10;99.90
31799;DHT22;18374;51.136;3.502;2023-02-04T09:05:42;8.10;99.90
31799;DHT22;18374;51.136;3.502;2023-02-04T09:08:10;8.20;99.90
31799;DHT22;18374;51.136;3.502;2023-02-04T09:10:38;8.20;99.90
31799;DHT22;18374;51.136;3.502;2023-02-04T09:13:06;8.30;99.90
31799;DHT22;18374;51.136;3.502;2023-02-04T09:15:35;8.30;99.90
31799;DHT22;18374;51.136;3.502;2023-02-04T09:18:03;8.30;99.90
31799;DHT22;18374;51.136;3.502;2023-02-04T09:20:38;8.40;99.90
31799;DHT22;18374;51.136;3.502;2023-02-04T09:23:07;8.50;99.90
31799;DHT22;18374;51.136;3.502;2023-02-04T09:25:41;8.50;99.90
31799;DHT22;18374;51.136;3.502;2023-02-04T09:28:11;8.50;99.90
31799;DHT22;18374;51.136;3.502;2023-02-04T09:30:40;8.60;99.90
31799;DHT22;18374;51.136;3.502;2023-02-04T09:33:10;8.60;99.90
31799;DHT22;18374;51.136;3.502;2023-02-04T09:35:39;8.60;99.90
31799;DHT22;18374;51.136;3.502;2023-02-04T09:38:06;8.70;99.90
31799;DHT22;18374;51.136;3.502;2023-02-04T09:40:38;8.60;99.90
31799;DHT22;18374;51.136;3.502;2023-02-04T09:43:13;8.60;99.90
31799;DHT22;18374;51.136;3.502;2023-02-04T09:45:47;8.70;99.90
31799;DHT22;18374;51.136;3.502;2023-02-04T09:48:16;8.70;99.90
31799;DHT22;18374;51.136;3.502;2023-02-04T09:50:48;8.70;99.90
31799;DHT22;18374;51.136;3.502;2023-02-04T09:53:20;8.70;99.90
31799;DHT22;18374;51.136;3.502;2023-02-04T09:55:50;8.80;99.90
31799;DHT22;18374;51.136;3.502;2023-02-04T09:58:20;8.80;99.90
31799;DHT22;18374;51.136;3.502;2023-02-04T10:00:57;8.90;99.90
31799;DHT22;18374;51.136;3.502;2023-02-04T10:03:28;8.90;99.90
31799;DHT22;18374;51.136;3.502;2023-02-04T10:05:56;9.00;99.90
31799;DHT22;18374;51.136;3.502;2023-02-04T10:08:28;9.00;99.90
31799;DHT22;18374;51.136;3.502;2023-02-04T10:10:57;9.10;99.90
31799;DHT22;18374;51.136;3.502;2023-02-04T10:13:33;9.20;99.90
31799;DHT22;18374;51.136;3.502;2023-02-04T10:16:13;9.20;99.90
31799;DHT22;18374;51.136;3.502;2023-02-04T10:18:42;9.20;99.90
31799;DHT22;18374;51.136;3.502;2023-02-04T10:21:36;9.40;99.90
31799;DHT22;18374;51.136;3.502;2023-02-04T10:24:13;9.40;99.90
31799;DHT22;18374;51.136;3.502;2023-02-04T10:26:42;9.40;99.90
31799;DHT22;18374;51.136;3.502;2023-02-04T10:29:19;9.50;99.90
31799;DHT22;18374;51.136;3.502;2023-02-04T10:31:49;9.50;99.90
31799;DHT22;18374;51.136;3.502;2023-02-04T10:36:53;9.50;99.90
31799;DHT22;18374;51.136;3.502;2023-02-04T10:39:26;9.60;99.90
31799;DHT22;18374;51.136;3.502;2023-02-04T10:41:57;9.60;99.90
31799;DHT22;18374;51.136;3.502;2023-02-04T10:44:30;9.70;99.90
31799;DHT22;18374;51.136;3.502;2023-02-04T10:47:16;9.60;99.90
31799;DHT22;18374;51.136;3.502;2023-02-04T10:49:54;9.60;99.90
31799;DHT22;18374;51.136;3.502;2023-02-04T10:52:29;9.50;99.90
31799;DHT22;18374;51.136;3.502;2023-02-04T10:55:04;9.50;99.90
31799;DHT22;18374;51.136;3.502;2023-02-04T10:57:37;9.60;99.90
31799;DHT22;18374;51.136;3.502;2023-02-04T11:00:21;9.60;99.90
31799;DHT22;18374;51.136;3.502;2023-02-04T11:02:54;9.70;99.90
31799;DHT22;18374;51.136;3.502;2023-02-04T11:05:30;9.70;99.90
31799;DHT22;18374;51.136;3.502;2023-02-04T11:08:00;9.70;99.90
31799;DHT22;18374;51.136;3.502;2023-02-04T11:10:31;9.80;99.90
31799;DHT22;18374;51.136;3.502;2023-02-04T11:13:03;9.80;99.90
31799;DHT22;18374;51.136;3.502;2023-02-04T11:15:37;9.90;99.90
31799;DHT22;18374;51.136;3.502;2023-02-04T11:20:56;9.80;99.90
31799;DHT22;18374;51.136;3.502;2023-02-04T11:26:13;9.80;99.90
31799;DHT22;18374;51.136;3.502;2023-02-04T11:31:29;9.90;99.90
31799;DHT22;18374;51.136;3.502;2023-02-04T11:37:12;9.90;99.90
31799;DHT22;18374;51.136;3.502;2023-02-04T11:39:49;9.90;99.90
31799;DHT22;18374;51.136;3.502;2023-02-04T11:45:04;9.80;99.90
31799;DHT22;18374;51.136;3.502;2023-02-04T11:47:39;9.80;99.90
31799;DHT22;18374;51.136;3.502;2023-02-04T11:50:21;9.90;99.90
31799;DHT22;18374;51.136;3.502;2023-02-04T11:52:53;9.90;99.90
31799;DHT22;18374;51.136;3.502;2023-02-04T11:55:21;9.90;99.90
31799;DHT22;18374;51.136;3.502;2023-02-04T11:57:53;9.90;99.90
31799;DHT22;18374;51.136;3.502;2023-02-04T12:00:30;9.90;99.90
31799;DHT22;18374;51.136;3.502;2023-02-04T12:03:03;9.90;99.90
31799;DHT22;18374;51.136;3.502;2023-02-04T12:05:43;10.00;99.90
31799;DHT22;18374;51.136;3.502;2023-02-04T12:11:10;10.10;99.90
31799;DHT22;18374;51.136;3.502;2023-02-04T12:13:49;10.10;99.90
31799;DHT22;18374;51.136;3.502;2023-02-04T12:16:18;10.10;99.90
31799;DHT22;18374;51.136;3.502;2023-02-04T12:18:46;10.10;99.90
31799;DHT22;18374;51.136;3.502;2023-02-04T12:21:14;10.10;99.90
31799;DHT22;18374;51.136;3.502;2023-02-04T12:23:42;10.00;99.90
31799;DHT22;18374;51.136;3.502;2023-02-04T12:26:11;10.00;99.90
31799;DHT22;18374;51.136;3.502;2023-02-04T12:28:39;9.90;99.90
31799;DHT22;18374;51.136;3.502;2023-02-04T12:31:06;10.00;99.90
31799;DHT22;18374;51.136;3.502;2023-02-04T12:33:34;10.00;99.90
31799;DHT22;18374;51.136;3.502;2023-02-04T12:36:02;10.00;99.90
31799;DHT22;18374;51.136;3.502;2023-02-04T12:38:30;10.00;99.90
31799;DHT22;18374;51.136;3.502;2023-02-04T12:40:58;10.00;99.90
31799;DHT22;18374;51.136;3.502;2023-02-04T12:43:26;10.10;99.90
31799;DHT22;18374;51.136;3.502;2023-02-04T12:45:54;10.10;99.90
31799;DHT22;18374;51.136;3.502;2023-02-04T12:48:22;10.20;99.90
31799;DHT22;18374;51.136;3.502;2023-02-04T12:50:50;10.20;99.90
31799;DHT22;18374;51.136;3.502;2023-02-04T12:53:17;10.30;99.90
31799;DHT22;18374;51.136;3.502;2023-02-04T12:55:45;10.30;99.90
31799;DHT22;18374;51.136;3.502;2023-02-04T12:58:13;10.30;99.90
31799;DHT22;18374;51.136;3.502;2023-02-04T13:00:41;10.30;99.90
31799;DHT22;18374;51.136;3.502;2023-02-04T13:03:08;10.20;99.90
31799;DHT22;18374;51.136;3.502;2023-02-04T13:05:36;10.30;99.90
31799;DHT22;18374;51.136;3.502;2023-02-04T13:08:04;10.30;99.90
31799;DHT22;18374;51.136;3.502;2023-02-04T13:10:32;10.30;99.90
31799;DHT22;18374;51.136;3.502;2023-02-04T13:13:00;10.30;99.90
31799;DHT22;18374;51.136;3.502;2023-02-04T13:15:30;10.40;99.90
31799;DHT22;18374;51.136;3.502;2023-02-04T13:17:59;10.30;99.90
31799;DHT22;18374;51.136;3.502;2023-02-04T13:20:26;10.30;99.90
31799;DHT22;18374;51.136;3.502;2023-02-04T13:22:54;10.30;99.90
31799;DHT22;18374;51.136;3.502;2023-02-04T13:25:22;10.40;99.90
31799;DHT22;18374;51.136;3.502;2023-02-04T13:27:49;10.40;99.90
31799;DHT22;18374;51.136;3.502;2023-02-04T13:30:17;10.50;99.90
31799;DHT22;18374;51.136;3.502;2023-02-04T13:32:45;10.50;99.90
31799;DHT22;18374;51.136;3.502;2023-02-04T13:35:13;10.40;99.90
31799;DHT22;18374;51.136;3.502;2023-02-04T13:37:40;10.50;99.90
31799;DHT22;18374;51.136;3.502;2023-02-04T13:40:10;10.50;99.90
31799;DHT22;18374;51.136;3.502;2023-02-04T13:42:38;10.60;99.90
31799;DHT22;18374;51.136;3.502;2023-02-04T13:45:08;10.60;99.90
31799;DHT22;18374;51.136;3.502;2023-02-04T13:47:38;10.60;99.90
31799;DHT22;18374;51.136;3.502;2023-02-04T13:50:07;10.60;99.90
31799;DHT22;18374;51.136;3.502;2023-02-04T13:52:35;10.60;99.90
31799;DHT22;18374;51.136;3.502;2023-02-04T13:55:03;10.60;99.90
31799;DHT22;18374;51.136;3.502;2023-02-04T13:57:31;10.50;99.90
31799;DHT22;18374;51.136;3.502;2023-02-04T13:59:59;10.50;99.90
31799;DHT22;18374;51.136;3.502;2023-02-04T14:02:27;10.40;99.90
31799;DHT22;18374;51.136;3.502;2023-02-04T14:04:55;10.40;99.90
31799;DHT22;18374;51.136;3.502;2023-02-04T14:07:24;10.40;99.90
31799;DHT22;18374;51.136;3.502;2023-02-04T14:09:51;10.30;99.90
31799;DHT22;18374;51.136;3.502;2023-02-04T14:12:19;10.30;99.90
31799;DHT22;18374;51.136;3.502;2023-02-04T14:14:49;10.30;99.90
31799;DHT22;18374;51.136;3.502;2023-02-04T14:17:19;10.30;99.90
31799;DHT22;18374;51.136;3.502;2023-02-04T14:19:56;10.30;99.90
31799;DHT22;18374;51.136;3.502;2023-02-04T14:22:24;10.30;99.90
31799;DHT22;18374;51.136;3.502;2023-02-04T14:24:54;10.30;99.90
31799;DHT22;18374;51.136;3.502;2023-02-04T14:27:30;10.30;99.90
31799;DHT22;18374;51.136;3.502;2023-02-04T14:29:58;10.20;99.90
31799;DHT22;18374;51.136;3.502;2023-02-04T14:32:26;10.20;99.90
31799;DHT22;18374;51.136;3.502;2023-02-04T14:34:54;10.30;99.90
31799;DHT22;18374;51.136;3.502;2023-02-04T14:37:24;10.20;99.90
31799;DHT22;18374;51.136;3.502;2023-02-04T14:39:55;10.30;99.90
31799;DHT22;18374;51.136;3.502;2023-02-04T14:42:25;10.30;99.90
31799;DHT22;18374;51.136;3.502;2023-02-04T14:44:53;10.30;99.90
31799;DHT22;18374;51.136;3.502;2023-02-04T14:47:21;10.30;99.90
31799;DHT22;18374;51.136;3.502;2023-02-04T14:49:52;10.30;99.90
31799;DHT22;18374;51.136;3.502;2023-02-04T14:52:23;10.10;99.90
31799;DHT22;18374;51.136;3.502;2023-02-04T14:54:57;10.10;99.90
31799;DHT22;18374;51.136;3.502;2023-02-04T14:57:28;10.10;99.90
31799;DHT22;18374;51.136;3.502;2023-02-04T14:59:56;10.00;99.90
31799;DHT22;18374;51.136;3.502;2023-02-04T15:02:24;10.00;99.90
31799;DHT22;18374;51.136;3.502;2023-02-04T15:04:52;10.00;99.90
31799;DHT22;18374;51.136;3.502;2023-02-04T15:07:20;10.00;99.90
31799;DHT22;18374;51.136;3.502;2023-02-04T15:09:47;10.00;99.90
31799;DHT22;18374;51.136;3.502;2023-02-04T15:12:15;10.00;99.90
31799;DHT22;18374;51.136;3.502;2023-02-04T15:14:43;10.00;99.90
31799;DHT22;18374;51.136;3.502;2023-02-04T15:17:10;10.00;99.90
31799;DHT22;18374;51.136;3.502;2023-02-04T15:19:40;10.00;99.90
31799;DHT22;18374;51.136;3.502;2023-02-04T15:22:08;10.00;99.90
31799;DHT22;18374;51.136;3.502;2023-02-04T15:24:36;10.00;99.90
31799;DHT22;18374;51.136;3.502;2023-02-04T15:27:04;10.00;99.90
31799;DHT22;18374;51.136;3.502;2023-02-04T15:29:32;9.90;99.90
31799;DHT22;18374;51.136;3.502;2023-02-04T15:32:00;9.90;99.90
31799;DHT22;18374;51.136;3.502;2023-02-04T15:34:28;9.80;99.90
31799;DHT22;18374;51.136;3.502;2023-02-04T15:36:55;9.80;99.90
31799;DHT22;18374;51.136;3.502;2023-02-04T15:39:23;9.80;99.90
31799;DHT22;18374;51.136;3.502;2023-02-04T15:41:51;9.80;99.90
31799;DHT22;18374;51.136;3.502;2023-02-04T15:44:18;9.80;99.90
31799;DHT22;18374;51.136;3.502;2023-02-04T15:46:47;9.80;99.90
31799;DHT22;18374;51.136;3.502;2023-02-04T15:49:16;9.80;99.90
31799;DHT22;18374;51.136;3.502;2023-02-04T15:51:43;9.80;99.90
31799;DHT22;18374;51.136;3.502;2023-02-04T15:54:11;9.70;99.90
31799;DHT22;18374;51.136;3.502;2023-02-04T15:56:39;9.70;99.90
31799;DHT22;18374;51.136;3.502;2023-02-04T15:59:07;9.70;99.90
31799;DHT22;18374;51.136;3.502;2023-02-04T16:01:34;9.70;99.90
31799;DHT22;18374;51.136;3.502;2023-02-04T16:04:02;9.60;99.90
31799;DHT22;18374;51.136;3.502;2023-02-04T16:06:30;9.60;99.90
31799;DHT22;18374;51.136;3.502;2023-02-04T16:08:58;9.60;99.90
31799;DHT22;18374;51.136;3.502;2023-02-04T16:11:25;9.50;99.90
31799;DHT22;18374;51.136;3.502;2023-02-04T16:13:53;9.50;99.90
31799;DHT22;18374;51.136;3.502;2023-02-04T16:16:21;9.50;99.90
31799;DHT22;18374;51.136;3.502;2023-02-04T16:18:49;9.40;99.90
31799;DHT22;18374;51.136;3.502;2023-02-04T16:21:16;9.40;99.90
31799;DHT22;18374;51.136;3.502;2023-02-04T16:23:44;9.40;99.90